Time;durP1;ratioP1;P1;durP2;ratioP2;P2;SDS_P1;SDS_P2;PMS_P1;PMS_P2;Temp;Humidity;BMP_temperature;BMP_pressure;BME280_temperature;BME280_humidity;BME280_pressure;Samples;Min_cycle;Max_cycle;Signal;HPM_P1;HPM_P2
2023/07/31 00:00:15;;;;;;;4.67;2.20;;;15.10;99.90;;;;;;5059543;28;20196;-31
2023/07/31 00:02:41;;;;;;;3.40;1.90;;;15.10;99.90;;;;;;5050685;28;20196;-31
2023/07/31 00:05:09;;;;;;;3.93;1.90;;;15.00;99.90;;;;;;5050265;28;20233;-31
2023/07/31 00:07:35;;;;;;;3.10;1.90;;;15.00;99.90;;;;;;5057112;28;20181;-31
2023/07/31 00:10:01;;;;;;;3.87;1.90;;;14.90;99.90;;;;;;5054082;28;20198;-31
2023/07/31 00:12:27;;;;;;;3.47;1.83;;;14.90;99.90;;;;;;5041820;28;20178;-32
2023/07/31 00:14:53;;;;;;;3.47;2.00;;;14.90;99.90;;;;;;5050632;28;20190;-30
2023/07/31 00:17:18;;;;;;;1.90;1.70;;;14.90;99.90;;;;;;5056487;28;20206;-31
2023/07/31 00:19:46;;;;;;;3.27;1.90;;;14.90;99.90;;;;;;5049639;28;20205;-33
2023/07/31 00:22:12;;;;;;;2.77;1.73;;;14.90;99.90;;;;;;5048512;28;20182;-30
2023/07/31 00:24:38;;;;;;;4.43;2.20;;;14.80;99.90;;;;;;5049843;28;20206;-31
2023/07/31 00:27:04;;;;;;;2.80;1.80;;;14.80;99.90;;;;;;5049781;28;20181;-31
2023/07/31 00:29:30;;;;;;;4.30;2.20;;;14.80;99.90;;;;;;5050104;28;20665;-31
2023/07/31 00:31:56;;;;;;;3.13;2.17;;;14.80;99.90;;;;;;5050482;28;20196;-31
2023/07/31 00:34:22;;;;;;;2.30;2.00;;;14.80;99.90;;;;;;5035971;28;20182;-32
2023/07/31 00:36:48;;;;;;;4.43;2.50;;;14.80;99.90;;;;;;5033879;28;20178;-31
2023/07/31 00:39:16;;;;;;;3.80;2.00;;;14.80;99.90;;;;;;5032528;28;20214;-32
2023/07/31 00:41:44;;;;;;;3.77;1.70;;;14.70;99.90;;;;;;5055579;28;20185;-31
2023/07/31 00:44:10;;;;;;;3.07;1.93;;;14.70;99.90;;;;;;5033082;28;20228;-29
2023/07/31 00:46:36;;;;;;;5.40;2.00;;;14.60;99.90;;;;;;5033748;28;20177;-31
2023/07/31 00:49:02;;;;;;;3.50;1.77;;;14.60;99.90;;;;;;5060807;28;20281;-30
2023/07/31 00:51:28;;;;;;;4.13;1.63;;;14.60;99.90;;;;;;5058771;28;20215;-31
2023/07/31 00:53:55;;;;;;;2.90;2.10;;;14.60;99.90;;;;;;5033048;28;20201;-30
2023/07/31 00:56:22;;;;;;;6.07;2.00;;;14.60;99.90;;;;;;5049270;28;20186;-33
2023/07/31 00:58:48;;;;;;;1.90;1.80;;;14.60;99.90;;;;;;5032654;28;20205;-31
2023/07/31 01:01:14;;;;;;;6.47;2.27;;;14.60;99.90;;;;;;5037026;28;20184;-32
2023/07/31 01:03:40;;;;;;;3.90;2.17;;;14.60;99.90;;;;;;5028166;28;20252;-31
2023/07/31 01:06:27;;;;;;;2.80;2.40;;;14.70;99.90;;;;;;5048947;28;20182;-30
2023/07/31 01:09:06;;;;;;;2.80;1.87;;;14.70;99.90;;;;;;5041902;28;20197;-31
2023/07/31 01:11:37;;;;;;;4.50;2.13;;;14.70;99.90;;;;;;5042406;28;20186;-31
2023/07/31 01:14:03;;;;;;;4.97;2.27;;;14.60;99.90;;;;;;5049318;28;20185;-32
2023/07/31 01:16:29;;;;;;;4.20;1.80;;;14.70;99.90;;;;;;5032924;28;20252;-31
2023/07/31 01:18:54;;;;;;;3.60;1.90;;;14.70;99.90;;;;;;5048924;28;20229;-31
2023/07/31 01:21:55;;;;;;;3.90;1.90;;;14.70;99.90;;;;;;5050927;28;20213;-30
2023/07/31 01:24:30;;;;;;;3.93;2.47;;;14.60;99.90;;;;;;5045977;28;20301;-32
2023/07/31 01:27:20;;;;;;;3.20;1.70;;;14.60;99.90;;;;;;5055180;28;20193;-33
2023/07/31 01:30:14;;;;;;;3.80;1.80;;;14.60;99.90;;;;;;5043085;28;20209;-31
2023/07/31 01:32:46;;;;;;;4.57;1.70;;;14.50;99.90;;;;;;5025951;28;20220;-31
2023/07/31 01:35:12;;;;;;;3.43;2.00;;;14.60;99.90;;;;;;5049205;28;20186;-31
2023/07/31 01:37:38;;;;;;;5.03;1.80;;;14.50;99.90;;;;;;5037156;28;20185;-30
2023/07/31 01:40:05;;;;;;;2.87;2.10;;;14.50;99.90;;;;;;5046633;28;20273;-31
2023/07/31 01:42:31;;;;;;;4.47;2.00;;;14.50;99.90;;;;;;5048677;28;20182;-31
2023/07/31 01:44:56;;;;;;;2.30;1.90;;;14.40;99.90;;;;;;5032627;28;20205;-31
2023/07/31 01:47:23;;;;;;;4.10;2.00;;;14.30;99.90;;;;;;5036900;28;20174;-34
2023/07/31 01:49:49;;;;;;;2.50;1.90;;;14.30;99.90;;;;;;5031250;28;20236;-32
2023/07/31 01:52:15;;;;;;;4.57;2.10;;;14.20;99.90;;;;;;5047049;28;20174;-31
2023/07/31 01:54:41;;;;;;;4.83;1.90;;;14.20;99.90;;;;;;5032548;28;20184;-30
2023/07/31 01:57:07;;;;;;;2.90;1.70;;;14.20;99.90;;;;;;5051131;28;20177;-31
2023/07/31 01:59:33;;;;;;;3.07;2.10;;;14.30;99.90;;;;;;5040999;28;20208;-31
2023/07/31 02:01:59;;;;;;;3.17;1.87;;;14.40;99.90;;;;;;5032658;28;20186;-31
2023/07/31 02:04:25;;;;;;;4.37;2.00;;;14.50;99.90;;;;;;5031878;28;20214;-31
2023/07/31 02:06:51;;;;;;;4.40;1.93;;;14.50;99.90;;;;;;5032484;28;20212;-31
2023/07/31 02:09:16;;;;;;;3.60;1.80;;;14.60;99.90;;;;;;5041570;28;20232;-31
2023/07/31 02:11:42;;;;;;;3.07;1.97;;;14.70;99.90;;;;;;5057150;28;20185;-31
2023/07/31 02:14:09;;;;;;;3.43;1.97;;;14.70;99.90;;;;;;5048952;28;20181;-31
2023/07/31 02:16:35;;;;;;;2.13;1.53;;;14.60;99.90;;;;;;5049034;28;20223;-32
2023/07/31 02:19:01;;;;;;;3.63;2.27;;;14.60;99.90;;;;;;5032312;28;20284;-31
2023/07/31 02:21:27;;;;;;;3.37;2.23;;;14.50;99.90;;;;;;5034795;28;20223;-31
2023/07/31 02:23:52;;;;;;;3.17;1.73;;;14.50;99.90;;;;;;5033991;28;20209;-31
2023/07/31 02:26:19;;;;;;;4.47;2.30;;;14.40;99.90;;;;;;5053008;28;20220;-30
2023/07/31 02:28:44;;;;;;;4.23;1.87;;;14.40;99.90;;;;;;5052869;28;20297;-31
2023/07/31 02:31:11;;;;;;;3.83;1.97;;;14.30;99.90;;;;;;5044642;28;20220;-31
2023/07/31 02:33:37;;;;;;;2.87;1.80;;;14.30;99.90;;;;;;5050821;28;20213;-30
2023/07/31 02:36:03;;;;;;;2.20;1.77;;;14.20;99.90;;;;;;5052480;28;20411;-31
2023/07/31 02:38:29;;;;;;;4.10;2.10;;;14.20;99.90;;;;;;5034973;28;20253;-31
2023/07/31 02:40:54;;;;;;;3.80;1.93;;;14.20;99.90;;;;;;5052311;28;20239;-31
2023/07/31 02:43:20;;;;;;;3.63;2.20;;;14.10;99.90;;;;;;5044855;28;20210;-31
2023/07/31 02:45:50;;;;;;;4.50;2.10;;;14.00;99.90;;;;;;5045048;28;20174;-30
2023/07/31 02:48:16;;;;;;;3.43;1.90;;;14.00;99.90;;;;;;5042971;28;20188;-30
2023/07/31 02:50:42;;;;;;;3.83;2.40;;;14.10;99.90;;;;;;5045062;28;20190;-31
2023/07/31 02:53:08;;;;;;;5.67;1.87;;;14.20;99.90;;;;;;5035746;28;20201;-35
2023/07/31 02:55:33;;;;;;;4.80;2.00;;;14.20;99.90;;;;;;5040622;28;20233;-31
2023/07/31 02:57:59;;;;;;;2.93;2.10;;;14.20;99.90;;;;;;5052088;28;20181;-31
2023/07/31 03:00:25;;;;;;;3.17;2.00;;;14.20;99.90;;;;;;5033386;28;20213;-31
2023/07/31 03:02:51;;;;;;;2.30;1.50;;;14.20;99.90;;;;;;5051534;28;20196;-30
2023/07/31 03:05:17;;;;;;;3.63;1.90;;;14.10;99.90;;;;;;5052048;28;20205;-31
2023/07/31 03:07:42;;;;;;;4.93;2.20;;;14.20;99.90;;;;;;5057299;28;20181;-31
2023/07/31 03:10:08;;;;;;;2.47;1.90;;;14.10;99.90;;;;;;5064212;28;20230;-30
2023/07/31 03:12:34;;;;;;;2.93;1.97;;;14.10;99.90;;;;;;5041765;28;20208;-30
2023/07/31 03:15:00;;;;;;;4.30;1.93;;;14.10;99.90;;;;;;5035244;28;20189;-31
2023/07/31 03:17:26;;;;;;;2.90;2.30;;;13.90;99.90;;;;;;5043522;28;20182;-31
2023/07/31 03:19:52;;;;;;;3.70;2.00;;;13.80;99.90;;;;;;5064633;28;20203;-31
2023/07/31 03:22:17;;;;;;;3.03;2.00;;;13.70;99.90;;;;;;5065768;28;20179;-31
2023/07/31 03:24:43;;;;;;;2.67;2.00;;;13.70;99.90;;;;;;5047043;28;20329;-30
2023/07/31 03:27:09;;;;;;;4.17;2.03;;;13.70;99.90;;;;;;5056373;28;20189;-31
2023/07/31 03:29:35;;;;;;;2.87;2.00;;;13.70;99.90;;;;;;5065581;28;20208;-31
2023/07/31 03:32:01;;;;;;;6.83;2.53;;;13.70;99.90;;;;;;5055893;28;20174;-30
2023/07/31 03:34:27;;;;;;;4.53;2.10;;;13.70;99.90;;;;;;5050718;28;20186;-32
2023/07/31 03:36:53;;;;;;;4.50;2.17;;;13.70;99.90;;;;;;5052823;28;20422;-31
2023/07/31 03:39:19;;;;;;;4.23;2.20;;;13.70;99.90;;;;;;5046032;28;20190;-30
2023/07/31 03:41:44;;;;;;;3.40;1.97;;;13.60;99.90;;;;;;5040191;28;20246;-30
2023/07/31 03:44:10;;;;;;;5.10;1.90;;;13.50;99.90;;;;;;5051240;28;20224;-32
2023/07/31 03:46:36;;;;;;;3.83;1.90;;;13.50;99.90;;;;;;5031845;28;20190;-31
2023/07/31 03:49:02;;;;;;;3.50;1.93;;;13.60;99.90;;;;;;5052827;28;20204;-31
2023/07/31 03:51:28;;;;;;;3.67;2.30;;;13.60;99.90;;;;;;5059515;28;20181;-30
2023/07/31 03:53:54;;;;;;;3.37;2.10;;;13.70;99.90;;;;;;5036047;28;20273;-31
2023/07/31 03:56:20;;;;;;;4.03;2.00;;;13.70;99.90;;;;;;5053748;28;20249;-31
2023/07/31 03:58:45;;;;;;;5.20;2.20;;;13.70;99.90;;;;;;5042531;28;20213;-30
2023/07/31 04:01:11;;;;;;;5.57;2.40;;;13.80;99.90;;;;;;5060613;28;20189;-31
2023/07/31 04:03:37;;;;;;;6.00;2.50;;;13.80;99.90;;;;;;5061353;28;20198;-32
2023/07/31 04:06:03;;;;;;;3.07;1.87;;;13.90;99.90;;;;;;5050307;28;20198;-31
2023/07/31 04:08:29;;;;;;;2.77;2.27;;;13.90;99.90;;;;;;5059458;28;20181;-31
2023/07/31 04:10:54;;;;;;;3.60;2.40;;;14.00;99.90;;;;;;5047437;28;20181;-30
2023/07/31 04:13:22;;;;;;;5.83;2.57;;;14.00;99.90;;;;;;5052822;28;20178;-30
2023/07/31 04:15:51;;;;;;;3.77;2.10;;;14.10;99.90;;;;;;5055096;28;20215;-30
2023/07/31 04:18:17;;;;;;;6.57;2.67;;;14.00;99.90;;;;;;5048603;28;20178;-31
2023/07/31 04:20:43;;;;;;;4.03;2.40;;;14.10;99.90;;;;;;5040006;28;20197;-30
2023/07/31 04:23:09;;;;;;;2.47;1.80;;;14.10;99.90;;;;;;5054907;28;20193;-30
2023/07/31 04:25:34;;;;;;;4.47;2.37;;;14.10;99.90;;;;;;5053428;28;20219;-30
2023/07/31 04:28:01;;;;;;;4.07;2.43;;;14.20;99.90;;;;;;5053259;28;20182;-31
2023/07/31 04:30:26;;;;;;;4.47;3.10;;;14.20;99.90;;;;;;5062243;28;20190;-31
2023/07/31 04:32:52;;;;;;;3.90;3.00;;;14.20;99.90;;;;;;5034365;28;20521;-31
2023/07/31 04:35:18;;;;;;;4.10;2.40;;;14.20;99.90;;;;;;5040083;28;20178;-31
2023/07/31 04:37:46;;;;;;;3.47;1.97;;;14.20;99.90;;;;;;5051010;28;20273;-31
2023/07/31 04:40:12;;;;;;;4.90;2.00;;;14.10;99.90;;;;;;5065907;28;20190;-30
2023/07/31 04:42:38;;;;;;;3.70;2.27;;;14.10;99.90;;;;;;5038520;28;20193;-31
2023/07/31 04:45:04;;;;;;;3.03;2.10;;;14.10;99.90;;;;;;5040443;28;20217;-33
2023/07/31 04:47:30;;;;;;;4.53;1.90;;;14.20;99.90;;;;;;5032623;28;20181;-30
2023/07/31 04:49:56;;;;;;;3.30;2.00;;;14.20;99.90;;;;;;5038957;28;20200;-31
2023/07/31 04:52:22;;;;;;;3.50;2.10;;;14.20;99.90;;;;;;5051802;28;20637;-31
2023/07/31 04:54:48;;;;;;;3.53;2.00;;;14.30;99.90;;;;;;5044817;28;20223;-31
2023/07/31 04:57:14;;;;;;;2.73;2.17;;;14.30;99.90;;;;;;5035780;28;20259;-32
2023/07/31 04:59:40;;;;;;;5.77;2.10;;;14.30;99.90;;;;;;5036044;28;20244;-31
2023/07/31 05:02:08;;;;;;;3.10;2.10;;;14.40;99.90;;;;;;5051069;28;20214;-30
2023/07/31 05:04:34;;;;;;;4.10;2.20;;;14.50;99.90;;;;;;5036767;28;20245;-32
2023/07/31 05:07:00;;;;;;;7.30;2.30;;;14.50;99.90;;;;;;5069244;28;20219;-31
2023/07/31 05:09:25;;;;;;;5.23;2.87;;;14.50;99.90;;;;;;5051089;28;20264;-31
2023/07/31 05:11:51;;;;;;;4.67;2.43;;;14.60;99.90;;;;;;5061578;28;20180;-31
2023/07/31 05:14:17;;;;;;;4.13;2.30;;;14.70;99.90;;;;;;5038062;28;20189;-31
2023/07/31 05:16:43;;;;;;;3.27;2.30;;;14.80;99.90;;;;;;5035231;28;20194;-31
2023/07/31 05:19:08;;;;;;;3.13;2.10;;;14.90;99.90;;;;;;5049187;28;20205;-31
2023/07/31 05:21:34;;;;;;;2.63;2.00;;;14.90;99.90;;;;;;5049532;28;20193;-31
2023/07/31 05:24:00;;;;;;;3.20;2.03;;;15.00;99.90;;;;;;5035732;28;20206;-31
2023/07/31 05:26:26;;;;;;;3.77;2.03;;;15.10;99.90;;;;;;5050148;28;20215;-30
2023/07/31 05:28:52;;;;;;;4.13;2.00;;;15.20;99.90;;;;;;5033283;28;20193;-31
2023/07/31 05:31:17;;;;;;;3.30;2.13;;;15.30;99.90;;;;;;5032647;28;20181;-30
2023/07/31 05:33:43;;;;;;;4.03;2.10;;;15.40;99.90;;;;;;5049481;28;20412;-31
2023/07/31 05:36:09;;;;;;;3.40;2.30;;;15.50;99.90;;;;;;5032762;28;20212;-31
2023/07/31 05:38:35;;;;;;;5.53;2.10;;;15.60;99.90;;;;;;5056922;28;20182;-31
2023/07/31 05:41:00;;;;;;;4.37;2.03;;;15.60;99.90;;;;;;5049385;28;20208;-31
2023/07/31 05:43:26;;;;;;;5.77;2.00;;;15.70;99.90;;;;;;5032473;28;20263;-30
2023/07/31 05:45:52;;;;;;;3.73;2.30;;;15.70;99.90;;;;;;5032995;28;20186;-30
2023/07/31 05:48:18;;;;;;;3.13;2.03;;;15.80;99.90;;;;;;5033535;28;20169;-31
2023/07/31 05:50:44;;;;;;;3.40;2.10;;;15.80;99.90;;;;;;5050280;28;20263;-31
2023/07/31 05:53:11;;;;;;;5.93;2.30;;;15.90;99.90;;;;;;5060169;28;20617;-31
2023/07/31 05:55:37;;;;;;;3.77;2.10;;;16.00;99.90;;;;;;5063096;28;20186;-31
2023/07/31 05:58:04;;;;;;;2.80;2.10;;;16.10;99.90;;;;;;5073376;28;20396;-31
2023/07/31 06:00:30;;;;;;;4.37;2.30;;;16.10;99.90;;;;;;5048172;28;20209;-31
2023/07/31 06:02:55;;;;;;;3.10;2.10;;;16.10;99.90;;;;;;5053834;28;20227;-35
2023/07/31 06:05:21;;;;;;;3.57;2.20;;;16.10;99.90;;;;;;5053936;28;20228;-31
2023/07/31 06:07:47;;;;;;;4.20;2.23;;;16.20;99.90;;;;;;5042744;28;20199;-31
2023/07/31 06:10:13;;;;;;;4.13;2.50;;;16.20;99.90;;;;;;5039400;28;20674;-31
2023/07/31 06:12:39;;;;;;;3.63;2.20;;;16.20;99.90;;;;;;5062935;28;20189;-31
2023/07/31 06:15:05;;;;;;;4.03;2.10;;;16.20;99.90;;;;;;5048488;28;20197;-31
2023/07/31 06:17:31;;;;;;;5.83;2.50;;;16.30;99.90;;;;;;5069513;28;20190;-30
2023/07/31 06:19:57;;;;;;;3.07;2.10;;;16.30;99.90;;;;;;5038221;28;20217;-30
2023/07/31 06:22:23;;;;;;;4.00;2.13;;;16.30;99.90;;;;;;5035774;28;20178;-31
2023/07/31 06:24:49;;;;;;;6.53;2.47;;;16.40;99.90;;;;;;5040517;28;20310;-32
2023/07/31 06:27:14;;;;;;;2.90;1.83;;;16.40;99.90;;;;;;5056697;28;20174;-32
2023/07/31 06:29:41;;;;;;;4.27;2.10;;;16.50;99.90;;;;;;5052882;28;20206;-31
2023/07/31 06:32:07;;;;;;;2.37;2.00;;;16.60;99.90;;;;;;5035889;28;20263;-31
2023/07/31 06:34:33;;;;;;;4.20;1.90;;;16.80;99.90;;;;;;5051898;28;20190;-32
2023/07/31 06:36:58;;;;;;;5.40;2.37;;;16.90;99.90;;;;;;5041231;28;20189;-30
2023/07/31 06:39:24;;;;;;;6.00;2.47;;;17.10;99.90;;;;;;5052614;28;20206;-31
2023/07/31 06:41:50;;;;;;;3.20;2.10;;;17.30;99.90;;;;;;5057249;28;20185;-31
2023/07/31 06:44:16;;;;;;;3.80;1.85;;;17.40;99.90;;;;;;5048356;28;20296;-32
2023/07/31 06:46:42;;;;;;;3.70;2.20;;;17.60;99.90;;;;;;5069366;28;20239;-32
2023/07/31 06:49:08;;;;;;;3.17;1.98;;;17.70;99.90;;;;;;5035238;28;20198;-31
2023/07/31 06:51:35;;;;;;;4.18;2.20;;;17.80;99.90;;;;;;5052424;28;20185;-31
2023/07/31 06:54:01;;;;;;;3.25;1.90;;;17.80;99.90;;;;;;5043942;28;20208;-31
2023/07/31 06:56:27;;;;;;;3.47;2.22;;;17.80;99.90;;;;;;5060328;28;20174;-32
2023/07/31 06:58:53;;;;;;;2.42;1.98;;;17.80;99.90;;;;;;5036006;28;20234;-32
2023/07/31 07:01:19;;;;;;;4.05;1.88;;;17.80;99.90;;;;;;5051210;28;20284;-32
2023/07/31 07:03:45;;;;;;;4.07;1.92;;;17.80;99.90;;;;;;5050402;28;20205;-32
2023/07/31 07:06:10;;;;;;;2.92;1.85;;;17.80;99.90;;;;;;5035304;28;20186;-32
2023/07/31 07:08:36;;;;;;;3.78;1.90;;;17.80;99.90;;;;;;5050889;28;20189;-31
2023/07/31 07:11:03;;;;;;;2.80;1.70;;;17.90;99.90;;;;;;5052363;28;20182;-30
2023/07/31 07:13:28;;;;;;;4.80;1.83;;;18.00;99.90;;;;;;5040803;28;20236;-31
2023/07/31 07:15:54;;;;;;;4.18;2.00;;;18.10;99.90;;;;;;5035303;28;20202;-31
2023/07/31 07:18:21;;;;;;;3.15;1.90;;;18.10;99.90;;;;;;5043471;28;20174;-32
2023/07/31 07:20:52;;;;;;;5.93;2.42;;;18.20;99.90;;;;;;5051868;28;20205;-31
2023/07/31 07:23:18;;;;;;;3.50;2.08;;;18.20;99.90;;;;;;5043022;28;20192;-31
2023/07/31 07:25:45;;;;;;;5.18;2.25;;;18.30;99.90;;;;;;5071854;28;20262;-31
2023/07/31 07:28:12;;;;;;;4.05;1.80;;;18.40;99.90;;;;;;5064551;28;20178;-31
2023/07/31 07:30:38;;;;;;;5.90;2.17;;;18.50;99.90;;;;;;5062519;28;20198;-31
2023/07/31 07:33:04;;;;;;;4.63;1.95;;;18.60;99.90;;;;;;5040124;28;20186;-32
2023/07/31 07:35:30;;;;;;;5.30;2.05;;;18.80;99.90;;;;;;5051720;28;20228;-31
2023/07/31 07:37:56;;;;;;;3.97;1.90;;;18.80;99.90;;;;;;5039114;28;20280;-32
2023/07/31 07:40:22;;;;;;;5.13;2.00;;;18.80;99.90;;;;;;5038238;28;20267;-31
2023/07/31 07:42:48;;;;;;;2.97;1.80;;;18.90;99.90;;;;;;5043144;28;20186;-31
2023/07/31 07:45:14;;;;;;;3.60;2.15;;;18.90;99.90;;;;;;5051413;28;20244;-31
2023/07/31 07:47:41;;;;;;;4.68;2.03;;;19.00;99.90;;;;;;5050758;28;20189;-31
2023/07/31 07:50:07;;;;;;;3.63;2.00;;;19.00;99.90;;;;;;5051372;28;20201;-31
2023/07/31 07:52:33;;;;;;;5.30;2.30;;;19.10;99.90;;;;;;5061231;28;20181;-33
2023/07/31 07:55:00;;;;;;;3.08;1.65;;;19.20;99.90;;;;;;5054728;28;20178;-32
2023/07/31 07:57:26;;;;;;;4.82;2.05;;;19.30;99.90;;;;;;5033074;28;20194;-31
2023/07/31 07:59:52;;;;;;;3.05;1.83;;;19.40;99.90;;;;;;5047769;28;20230;-31
2023/07/31 08:02:18;;;;;;;4.90;2.28;;;19.50;99.90;;;;;;5035644;28;20207;-31
2023/07/31 08:04:44;;;;;;;3.95;2.13;;;19.60;99.90;;;;;;5050727;28;20255;-32
2023/07/31 08:07:13;;;;;;;4.72;2.00;;;19.70;99.90;;;;;;5051426;28;20186;-31
2023/07/31 08:09:40;;;;;;;4.63;1.70;;;19.90;99.90;;;;;;5038069;28;20255;-32
2023/07/31 08:12:06;;;;;;;5.90;2.33;;;20.10;99.90;;;;;;5051315;28;20178;-32
2023/07/31 08:14:32;;;;;;;3.35;2.22;;;20.10;99.90;;;;;;5043889;28;20185;-31
2023/07/31 08:16:59;;;;;;;3.85;2.28;;;20.20;99.90;;;;;;5054178;28;20235;-32
2023/07/31 08:19:25;;;;;;;4.65;2.00;;;20.30;99.90;;;;;;5053029;28;20257;-32
2023/07/31 08:21:50;;;;;;;4.35;1.83;;;20.30;99.90;;;;;;5042815;28;20706;-32
2023/07/31 08:24:16;;;;;;;4.35;1.95;;;20.40;99.90;;;;;;5050081;28;20208;-31
2023/07/31 08:26:42;;;;;;;3.72;2.00;;;20.60;99.90;;;;;;5045840;28;20174;-32
2023/07/31 08:29:08;;;;;;;3.50;1.92;;;20.60;99.90;;;;;;5041231;28;20283;-32
2023/07/31 08:31:34;;;;;;;5.15;2.15;;;20.70;99.90;;;;;;5035190;28;20196;-31
2023/07/31 08:34:00;;;;;;;4.72;1.95;;;20.60;99.90;;;;;;5050107;28;20182;-31
2023/07/31 08:36:26;;;;;;;3.90;2.03;;;20.60;99.90;;;;;;5035833;28;20268;-31
2023/07/31 08:38:52;;;;;;;4.72;2.20;;;20.50;99.90;;;;;;5047775;28;20288;-32
2023/07/31 08:41:18;;;;;;;4.32;1.90;;;20.40;99.90;;;;;;5053961;28;20187;-33
2023/07/31 08:43:49;;;;;;;3.67;2.10;;;20.30;99.90;;;;;;5033170;28;20216;-32
2023/07/31 08:46:15;;;;;;;3.17;1.88;;;20.20;99.90;;;;;;5034590;28;20276;-32
2023/07/31 08:48:43;;;;;;;4.72;2.20;;;20.10;99.90;;;;;;5044592;28;20261;-34
2023/07/31 08:51:10;;;;;;;3.40;2.28;;;20.20;99.90;;;;;;5031676;28;20187;-32
2023/07/31 08:53:36;;;;;;;4.78;2.08;;;20.50;99.90;;;;;;5033155;28;20205;-31
2023/07/31 08:56:03;;;;;;;6.18;2.25;;;20.60;99.90;;;;;;5051035;28;20192;-31
2023/07/31 08:58:32;;;;;;;3.97;2.38;;;20.80;99.90;;;;;;5032347;28;20182;-31
2023/07/31 09:01:01;;;;;;;4.65;2.33;;;20.90;99.90;;;;;;5049537;28;20182;-31
2023/07/31 09:03:33;;;;;;;3.40;2.25;;;20.80;99.90;;;;;;5049326;28;20178;-33
2023/07/31 09:06:00;;;;;;;3.25;1.98;;;20.70;99.90;;;;;;5033997;28;20190;-31
2023/07/31 09:08:30;;;;;;;4.00;1.83;;;20.80;99.90;;;;;;5033514;28;20185;-34
2023/07/31 09:11:01;;;;;;;4.32;2.20;;;21.00;99.90;;;;;;5034650;28;20174;-31
2023/07/31 09:13:29;;;;;;;6.20;2.45;;;21.20;99.90;;;;;;5048975;28;20174;-31
2023/07/31 09:15:55;;;;;;;4.90;2.45;;;21.40;99.90;;;;;;5034670;28;20195;-31
2023/07/31 09:18:22;;;;;;;3.33;2.10;;;21.40;99.90;;;;;;5030702;28;20181;-31
2023/07/31 09:21:05;;;;;;;6.85;2.38;;;21.50;99.90;;;;;;5048015;28;20190;-32
2023/07/31 09:23:44;;;;;;;4.38;2.03;;;21.40;99.90;;;;;;5041922;28;20185;-31
2023/07/31 09:26:10;;;;;;;6.68;2.58;;;21.50;99.90;;;;;;5048681;28;20184;-31
2023/07/31 09:28:37;;;;;;;3.38;2.15;;;21.60;99.90;;;;;;5032140;28;20288;-31
2023/07/31 09:31:03;;;;;;;6.72;3.50;;;21.50;99.90;;;;;;5048587;28;20274;-31
2023/07/31 09:33:30;;;;;;;4.95;2.28;;;21.50;99.90;;;;;;5032673;28;20261;-33
2023/07/31 09:36:00;;;;;;;5.45;2.90;;;21.40;99.90;;;;;;5036453;28;20174;-32
2023/07/31 09:38:26;;;;;;;3.72;2.70;;;21.50;99.90;;;;;;5031620;28;20174;-32
2023/07/31 09:40:52;;;;;;;5.13;2.53;;;21.60;99.90;;;;;;5033931;28;20178;-32
2023/07/31 09:43:20;;;;;;;5.20;2.17;;;21.50;99.90;;;;;;5047985;28;20239;-33
2023/07/31 09:45:47;;;;;;;4.07;2.53;;;21.60;99.90;;;;;;5032362;28;20265;-31
2023/07/31 09:48:16;;;;;;;7.65;2.60;;;21.60;99.90;;;;;;5032103;28;20178;-33
2023/07/31 09:50:46;;;;;;;4.65;2.15;;;21.60;99.90;;;;;;5036222;28;20241;-31
2023/07/31 09:53:13;;;;;;;7.15;2.55;;;21.70;99.90;;;;;;5048274;28;20248;-31
2023/07/31 09:55:40;;;;;;;3.65;2.20;;;21.80;99.90;;;;;;5033933;28;20272;-35
2023/07/31 09:58:08;;;;;;;4.78;2.08;;;22.20;99.90;;;;;;5049176;28;20210;-31
2023/07/31 10:00:35;;;;;;;5.93;2.50;;;22.20;99.90;;;;;;5034139;28;20206;-32
2023/07/31 10:03:04;;;;;;;7.05;2.75;;;22.30;99.90;;;;;;5048521;28;20178;-31
2023/07/31 10:05:34;;;;;;;4.53;2.47;;;22.30;99.90;;;;;;5032417;28;20205;-32
2023/07/31 10:08:00;;;;;;;5.63;2.35;;;22.30;99.90;;;;;;5033858;28;20700;-31
2023/07/31 10:10:27;;;;;;;4.40;2.20;;;22.20;99.90;;;;;;5032294;28;20289;-32
2023/07/31 10:12:54;;;;;;;4.70;2.30;;;22.40;99.90;;;;;;5049265;28;20178;-31
2023/07/31 10:15:21;;;;;;;6.05;2.58;;;22.60;99.90;;;;;;5032413;28;20198;-31
2023/07/31 10:17:49;;;;;;;5.30;2.42;;;22.70;99.90;;;;;;5051874;28;20186;-30
2023/07/31 10:20:16;;;;;;;4.15;2.47;;;22.90;99.90;;;;;;5033141;28;20210;-33
2023/07/31 10:22:43;;;;;;;6.78;2.38;;;23.10;99.90;;;;;;5049355;28;20278;-31
2023/07/31 10:25:10;;;;;;;3.22;2.15;;;23.20;99.90;;;;;;5033956;28;20214;-32
2023/07/31 10:27:39;;;;;;;5.72;2.25;;;23.30;99.90;;;;;;5048169;28;20185;-32
2023/07/31 10:30:07;;;;;;;4.72;2.42;;;23.30;99.90;;;;;;5047345;28;20201;-31
2023/07/31 10:32:34;;;;;;;4.68;2.28;;;23.30;99.90;;;;;;5047096;28;20181;-31
2023/07/31 10:35:03;;;;;;;3.95;2.33;;;23.50;99.90;;;;;;5015896;28;20206;-32
2023/07/31 10:37:36;;;;;;;5.75;2.47;;;23.50;99.90;;;;;;5032952;28;20214;-33
2023/07/31 10:40:13;;;;;;;3.10;2.03;;;23.50;99.90;;;;;;5037572;28;20229;-31
2023/07/31 10:42:49;;;;;;;4.50;2.10;;;23.30;99.90;;;;;;5048779;28;20663;-32
2023/07/31 10:45:42;;;;;;;5.50;2.38;;;23.10;99.90;;;;;;5052542;28;20205;-31
2023/07/31 10:48:15;;;;;;;2.67;1.90;;;23.20;99.90;;;;;;5038374;28;20179;-31
2023/07/31 10:50:50;;;;;;;4.78;2.33;;;23.20;99.90;;;;;;5033555;28;20684;-31
2023/07/31 10:53:30;;;;;;;5.32;2.30;;;23.40;99.90;;;;;;5051821;28;20211;-33
2023/07/31 10:56:01;;;;;;;5.32;2.25;;;23.40;99.90;;;;;;5025622;28;20190;-32
2023/07/31 10:58:27;;;;;;;4.53;2.40;;;23.60;99.90;;;;;;5059579;28;20272;-32
2023/07/31 11:00:58;;;;;;;7.57;2.25;;;23.80;99.90;;;;;;5043042;28;20276;-31
2023/07/31 11:03:48;;;;;;;5.32;2.20;;;24.00;99.90;;;;;;5042224;28;20242;-33
2023/07/31 11:06:15;;;;;;;5.60;2.17;;;24.10;99.90;;;;;;5039266;28;20202;-32
2023/07/31 11:08:48;;;;;;;5.05;2.55;;;24.20;99.90;;;;;;5052029;28;20660;-34
2023/07/31 11:11:16;;;;;;;4.40;2.10;;;24.30;99.90;;;;;;5054948;28;20182;-32
2023/07/31 11:13:53;;;;;;;4.03;2.45;;;24.30;99.90;;;;;;5038150;28;20217;-31
2023/07/31 11:16:24;;;;;;;3.22;2.42;;;23.90;99.90;;;;;;5058444;28;20194;-32
2023/07/31 11:18:55;;;;;;;4.50;2.40;;;23.90;99.90;;;;;;5036870;28;20217;-32
2023/07/31 11:21:24;;;;;;;4.90;2.08;;;24.10;99.90;;;;;;5056786;28;20186;-33
2023/07/31 11:23:52;;;;;;;4.22;2.80;;;24.20;99.90;;;;;;5045044;28;20216;-32
2023/07/31 11:26:18;;;;;;;4.18;2.20;;;24.20;99.90;;;;;;5061766;28;20181;-32
2023/07/31 11:28:48;;;;;;;4.30;2.47;;;24.20;99.90;;;;;;5047129;28;20229;-32
2023/07/31 11:31:14;;;;;;;4.28;2.60;;;24.10;99.90;;;;;;5044931;28;20170;-32
2023/07/31 11:33:40;;;;;;;4.15;2.67;;;24.20;99.90;;;;;;5059949;28;20253;-32
2023/07/31 11:36:06;;;;;;;4.70;2.70;;;24.20;99.90;;;;;;5042139;28;20181;-32
2023/07/31 11:38:33;;;;;;;4.07;2.50;;;24.20;99.90;;;;;;5059395;28;20219;-32
2023/07/31 11:41:04;;;;;;;4.28;2.30;;;24.10;99.90;;;;;;5060033;28;20240;-32
2023/07/31 11:43:36;;;;;;;5.60;2.80;;;24.10;99.90;;;;;;5033703;28;20288;-32
2023/07/31 11:46:06;;;;;;;5.15;2.33;;;24.20;99.90;;;;;;5051885;28;20200;-32
2023/07/31 11:48:36;;;;;;;4.43;2.42;;;24.20;99.90;;;;;;5050697;28;20188;-32
2023/07/31 11:51:04;;;;;;;3.40;2.38;;;24.00;99.90;;;;;;5033594;28;20185;-32
2023/07/31 11:53:37;;;;;;;2.97;2.58;;;23.90;99.90;;;;;;5050341;28;20204;-31
2023/07/31 11:56:05;;;;;;;5.10;2.50;;;23.60;99.90;;;;;;5042688;28;20182;-33
2023/07/31 11:58:34;;;;;;;3.83;2.42;;;23.50;99.90;;;;;;5050853;28;20205;-32
2023/07/31 12:01:00;;;;;;;3.65;2.67;;;23.40;99.90;;;;;;5050990;28;20178;-33
2023/07/31 12:03:27;;;;;;;4.28;2.50;;;23.30;99.90;;;;;;5049819;28;20217;-32
2023/07/31 12:05:54;;;;;;;3.55;2.40;;;23.30;99.90;;;;;;5050996;28;20276;-32
2023/07/31 12:08:25;;;;;;;5.28;2.65;;;23.30;99.90;;;;;;5033733;28;20184;-33
2023/07/31 12:10:53;;;;;;;5.40;2.50;;;23.30;99.90;;;;;;5050599;28;20205;-32
2023/07/31 12:13:26;;;;;;;4.18;2.53;;;23.40;99.90;;;;;;5050683;28;20182;-32
2023/07/31 12:16:03;;;;;;;4.55;2.35;;;23.40;99.90;;;;;;5030280;28;20194;-33
2023/07/31 12:18:33;;;;;;;3.90;2.50;;;23.60;99.90;;;;;;5049655;28;20178;-32
2023/07/31 12:21:00;;;;;;;5.70;2.88;;;23.80;99.90;;;;;;5050496;28;20182;-32
2023/07/31 12:23:32;;;;;;;3.15;2.40;;;23.70;99.90;;;;;;5047409;28;20206;-32
2023/07/31 12:26:06;;;;;;;5.20;2.55;;;23.90;99.90;;;;;;5050011;28;20216;-32
2023/07/31 12:28:40;;;;;;;4.43;2.42;;;24.10;99.90;;;;;;5031275;28;20181;-31
2023/07/31 12:31:10;;;;;;;3.85;2.40;;;24.30;99.90;;;;;;5035392;28;20177;-31
2023/07/31 12:33:39;;;;;;;3.72;2.25;;;24.60;99.90;;;;;;5049847;28;20182;-33
2023/07/31 12:36:14;;;;;;;2.72;2.30;;;24.80;99.90;;;;;;5049014;28;20189;-31
2023/07/31 12:38:41;;;;;;;3.08;2.33;;;24.80;99.90;;;;;;5056974;28;20185;-34
2023/07/31 12:41:09;;;;;;;4.72;2.30;;;24.80;99.90;;;;;;5051619;28;20198;-32
2023/07/31 12:43:37;;;;;;;4.60;2.38;;;24.90;99.90;;;;;;5040794;28;20235;-32
2023/07/31 12:46:03;;;;;;;3.15;2.50;;;24.90;99.90;;;;;;5038814;28;20210;-31
2023/07/31 12:48:30;;;;;;;4.03;2.47;;;24.90;99.90;;;;;;5049474;28;20181;-32